Time;durP1;ratioP1;P1;durP2;ratioP2;P2;SDS_P1;SDS_P2;PMS_P1;PMS_P2;Temp;Humidity;BMP_temperature;BMP_pressure;BME280_temperature;BME280_humidity;BME280_pressure;Samples;Min_cycle;Max_cycle;Signal;HPM_P1;HPM_P2
2022/12/01 00:01:09;;;;;;;7.18;5.45;;;;;;;6.57;97.17;100163.06;5033015;28;20470;-44
2022/12/01 00:03:34;;;;;;;8.02;5.43;;;;;;;6.45;97.47;100167.88;5033092;28;20460;-44
2022/12/01 00:06:02;;;;;;;7.47;5.22;;;;;;;6.48;97.36;100166.69;5033031;28;20029;-46
2022/12/01 00:08:28;;;;;;;7.30;5.55;;;;;;;6.78;97.72;100161.72;5033105;28;20056;-44
2022/12/01 00:10:53;;;;;;;7.80;6.05;;;;;;;6.66;96.53;100155.91;5032847;28;20051;-45
2022/12/01 00:13:19;;;;;;;7.88;5.78;;;;;;;6.57;96.73;100146.38;5033041;28;20431;-44
2022/12/01 00:15:44;;;;;;;6.95;5.20;;;;;;;6.38;97.20;100156.28;5032781;28;20112;-44
2022/12/01 00:18:10;;;;;;;9.05;6.57;;;;;;;6.44;98.48;100154.81;5032743;28;20053;-44
2022/12/01 00:20:35;;;;;;;9.45;6.90;;;;;;;6.52;99.29;100153.97;5032728;28;20024;-46
2022/12/01 00:23:01;;;;;;;8.35;5.85;;;;;;;6.42;97.64;100146.22;5032957;28;20290;-45
2022/12/01 00:25:27;;;;;;;9.52;6.72;;;;;;;6.53;98.80;100159.09;5032493;28;20062;-45
2022/12/01 00:27:53;;;;;;;9.85;6.45;;;;;;;6.32;98.47;100158.75;5032466;28;20029;-46
2022/12/01 00:30:21;;;;;;;8.88;6.32;;;;;;;6.24;98.70;100146.38;5032456;28;20021;-46
2022/12/01 00:32:47;;;;;;;10.60;6.75;;;;;;;6.53;98.72;100160.91;5032357;28;20489;-45
2022/12/01 00:35:13;;;;;;;10.80;7.10;;;;;;;6.53;98.68;100151.16;5032633;28;20543;-46
2022/12/01 00:37:39;;;;;;;9.60;6.53;;;;;;;6.71;97.75;100156.25;5032394;28;20481;-46
2022/12/01 00:40:06;;;;;;;9.35;6.75;;;;;;;6.68;96.99;100147.81;5032097;28;20032;-47
2022/12/01 00:42:31;;;;;;;8.38;6.05;;;;;;;6.74;97.26;100150.63;5032189;28;20527;-45
2022/12/01 00:44:57;;;;;;;9.45;6.70;;;;;;;6.78;97.45;100140.53;5032237;28;20030;-45
2022/12/01 00:47:22;;;;;;;8.75;6.35;;;;;;;6.63;97.74;100145.69;5032060;28;20052;-45
2022/12/01 00:49:48;;;;;;;9.23;6.50;;;;;;;6.57;97.85;100133.16;5032119;28;20116;-45
2022/12/01 00:52:15;;;;;;;8.93;5.72;;;;;;;6.71;97.27;100147.50;5031936;28;20029;-45
2022/12/01 00:54:41;;;;;;;7.88;5.65;;;;;;;6.55;98.37;100132.47;5031757;28;20029;-45
2022/12/01 00:57:07;;;;;;;8.00;5.68;;;;;;;6.89;97.74;100132.22;5031839;28;20030;-45
2022/12/01 00:59:33;;;;;;;7.13;5.25;;;;;;;6.72;97.09;100134.13;5031882;28;20470;-45
2022/12/01 01:01:59;;;;;;;5.85;4.47;;;;;;;6.74;96.58;100128.63;5031733;28;20108;-47
2022/12/01 01:04:24;;;;;;;5.07;4.20;;;;;;;6.57;97.31;100131.31;5031826;28;20097;-44
2022/12/01 01:06:49;;;;;;;5.90;4.60;;;;;;;6.61;97.64;100130.00;5031694;28;20075;-44
2022/12/01 01:09:15;;;;;;;4.70;3.88;;;;;;;6.41;99.45;100129.50;5031436;28;20017;-46
2022/12/01 01:11:41;;;;;;;6.07;4.57;;;;;;;6.53;99.41;100118.59;5031545;28;20336;-45
2022/12/01 01:14:07;;;;;;;5.65;4.40;;;;;;;6.57;98.68;100112.00;5031836;28;20104;-45
2022/12/01 01:16:33;;;;;;;5.10;3.78;;;;;;;6.43;98.16;100114.31;5031847;28;20157;-47
2022/12/01 01:18:59;;;;;;;5.95;3.75;;;;;;;6.66;98.00;100108.31;5031506;28;20470;-45
2022/12/01 01:21:26;;;;;;;5.25;3.55;;;;;;;6.72;97.37;100104.16;5031205;28;20029;-45
2022/12/01 01:23:53;;;;;;;5.35;3.90;;;;;;;6.49;97.47;100096.94;5031217;28;20033;-45
2022/12/01 01:26:24;;;;;;;4.90;3.95;;;;;;;6.71;97.95;100092.78;5031512;28;20041;-44
2022/12/01 01:28:51;;;;;;;5.22;4.18;;;;;;;6.78;97.72;100096.41;5031425;28;20493;-44
2022/12/01 01:31:22;;;;;;;4.60;3.50;;;;;;;6.57;97.60;100098.78;5031312;28;20041;-44
2022/12/01 01:33:47;;;;;;;5.47;4.18;;;;;;;6.38;98.61;100102.59;5031576;28;20026;-44
2022/12/01 01:36:14;;;;;;;5.78;4.10;;;;;;;6.44;99.19;100100.09;5031285;28;20028;-43
2022/12/01 01:38:39;;;;;;;4.45;3.45;;;;;;;6.44;98.65;100091.34;5031437;28;20484;-44
2022/12/01 01:41:05;;;;;;;4.50;3.40;;;;;;;6.25;98.79;100085.44;5031364;28;20056;-45
2022/12/01 01:43:52;;;;;;;5.20;4.10;;;;;;;6.43;99.99;100100.25;5030904;28;20021;-46
2022/12/01 01:46:26;;;;;;;5.65;4.35;;;;;;;6.50;99.16;100087.22;5031383;28;20013;-44
2022/12/01 01:49:06;;;;;;;7.00;4.93;;;;;;;6.68;98.75;100093.09;5030943;28;20135;-45
2022/12/01 01:51:45;;;;;;;5.03;4.18;;;;;;;6.68;97.10;100089.63;5030988;28;20087;-45
2022/12/01 01:54:19;;;;;;;5.53;4.18;;;;;;;6.74;96.83;100091.59;5030974;28;20025;-45
2022/12/01 01:56:47;;;;;;;4.28;3.60;;;;;;;6.58;97.93;100090.66;5030784;28;20021;-45
2022/12/01 01:59:17;;;;;;;5.00;3.90;;;;;;;6.35;97.98;100092.34;5030899;28;20030;-46
2022/12/01 02:01:47;;;;;;;4.88;3.88;;;;;;;6.62;98.08;100091.13;5030752;28;20045;-46
2022/12/01 02:04:13;;;;;;;;;;;;;;;6.70;97.73;100087.66;5031221;28;20029;-46
2022/12/01 02:06:39;;;;;;;5.40;4.30;;;;;;;6.53;98.60;100097.44;5030451;28;19932;-45
2022/12/01 02:09:04;;;;;;;5.05;4.00;;;;;;;6.72;98.59;100096.22;5031029;28;20049;-45
2022/12/01 02:11:47;;;;;;;5.10;4.00;;;;;;;6.69;97.80;100086.84;5030502;28;20494;-44
2022/12/01 02:14:39;;;;;;;4.30;3.50;;;;;;;6.56;96.88;100086.53;5030711;28;20030;-46
2022/12/01 02:17:29;;;;;;;4.50;3.50;;;;;;;6.52;97.68;100087.88;5030765;28;20060;-45
2022/12/01 02:20:25;;;;;;;4.68;3.45;;;;;;;6.61;98.02;100084.22;5030401;28;20493;-45
2022/12/01 02:23:23;;;;;;;4.93;3.40;;;;;;;6.40;99.82;100096.16;5029876;28;20493;-45
2022/12/01 02:25:57;;;;;;;4.32;3.22;;;;;;;6.47;98.28;100077.78;5030149;28;20068;-45
2022/12/01 02:28:41;;;;;;;3.40;3.00;;;;;;;6.29;99.33;100083.28;5030342;28;20052;-44
2022/12/01 02:31:22;;;;;;;3.92;2.95;;;;;;;6.32;98.78;100084.75;5030377;28;20025;-48
2022/12/01 02:33:56;;;;;;;4.97;3.10;;;;;;;5.99;99.49;100048.59;5030561;28;20034;-46
2022/12/01 02:36:35;;;;;;;3.80;2.85;;;;;;;6.23;100.00;100076.03;5030333;28;20163;-45
2022/12/01 02:39:09;;;;;;;3.17;2.70;;;;;;;6.18;100.00;100075.69;5030226;28;20029;-46
2022/12/01 02:42:00;;;;;;;3.80;2.92;;;;;;;6.44;100.00;100059.63;5030182;28;20029;-45
2022/12/01 02:44:34;;;;;;;4.13;3.25;;;;;;;6.55;99.88;100059.28;5030221;28;20037;-46
2022/12/01 02:47:04;;;;;;;3.70;3.10;;;;;;;6.52;98.46;100061.44;5029759;28;20029;-45
2022/12/01 02:49:34;;;;;;;3.88;2.72;;;;;;;6.54;98.47;100067.38;5030095;28;20025;-45
2022/12/01 02:52:04;;;;;;;2.92;2.60;;;;;;;6.50;97.33;100058.13;5030077;28;20079;-44
2022/12/01 02:54:31;;;;;;;3.15;2.85;;;;;;;6.60;97.68;100064.03;5030237;28;20036;-46
2022/12/01 02:56:56;;;;;;;3.10;2.63;;;;;;;6.62;97.49;100054.94;5029990;28;20134;-45
2022/12/01 02:59:22;;;;;;;3.05;2.70;;;;;;;6.42;96.95;100054.50;5030092;28;20032;-45
2022/12/01 03:01:58;;;;;;;3.33;2.55;;;;;;;6.07;97.57;100055.69;5029854;28;20460;-44
2022/12/01 03:04:42;;;;;;;3.50;2.45;;;;;;;6.23;99.66;100054.88;5030249;28;20049;-45
2022/12/01 03:07:25;;;;;;;2.90;2.25;;;;;;;6.33;100.00;100055.50;5030088;28;20061;-48
2022/12/01 03:10:00;;;;;;;3.15;2.60;;;;;;;6.40;99.13;100061.78;5030012;28;20083;-47
2022/12/01 03:12:35;;;;;;;3.33;2.60;;;;;;;6.52;98.96;100059.59;5029978;28;20083;-46
2022/12/01 03:15:31;;;;;;;3.13;2.38;;;;;;;6.49;97.94;100054.63;5030021;28;20033;-45
2022/12/01 03:18:34;;;;;;;3.00;2.40;;;;;;;6.49;98.49;100059.94;5030137;28;20219;-46
2022/12/01 03:21:03;;;;;;;2.50;2.15;;;;;;;6.47;98.51;100056.63;5027760;28;20037;-46
2022/12/01 03:23:34;;;;;;;2.70;2.17;;;;;;;6.77;96.74;100055.06;5029984;28;20026;-46
2022/12/01 03:26:05;;;;;;;2.90;2.17;;;;;;;6.41;97.27;100055.47;5029876;28;20433;-45
2022/12/01 03:28:45;;;;;;;2.60;2.10;;;;;;;6.64;98.40;100060.06;5029844;28;20064;-45
2022/12/01 03:31:16;;;;;;;2.40;2.10;;;;;;;6.71;97.56;100052.28;5029817;28;20026;-46
2022/12/01 03:33:56;;;;;;;2.67;1.98;;;;;;;6.37;98.31;100040.13;5032232;28;20033;-46
2022/12/01 03:36:28;;;;;;;3.00;2.50;;;;;;;6.56;98.21;100057.44;5033759;28;20033;-45
2022/12/01 03:39:01;;;;;;;2.50;2.30;;;;;;;6.48;98.54;100049.53;5033345;28;20029;-45
2022/12/01 03:41:57;;;;;;;2.72;1.90;;;;;;;6.49;98.10;100064.41;5033450;28;20032;-44
2022/12/01 03:44:33;;;;;;;3.97;2.20;;;;;;;6.61;98.48;100069.16;5032805;28;20039;-44
2022/12/01 03:47:07;;;;;;;2.85;2.13;;;;;;;6.57;96.91;100053.81;5033095;28;20144;-45
2022/12/01 03:49:34;;;;;;;2.78;2.10;;;;;;;6.70;96.95;100059.41;5033398;28;20033;-48
2022/12/01 03:52:20;;;;;;;3.47;2.15;;;;;;;6.67;97.13;100059.72;5033368;28;20025;-46
2022/12/01 03:55:01;;;;;;;3.85;1.90;;;;;;;6.63;98.07;100055.78;5033254;28;20030;-44
2022/12/01 03:57:37;;;;;;;;;;;;;;;6.30;98.66;100055.03;5033680;28;20478;-45
2022/12/01 04:00:05;;;;;;;3.38;2.35;;;;;;;6.64;98.22;100062.69;5033207;28;19913;-45
2022/12/01 04:02:31;;;;;;;2.40;2.00;;;;;;;6.53;97.49;100048.03;5033248;28;20040;-46
2022/12/01 04:04:56;;;;;;;2.00;1.77;;;;;;;6.55;97.44;100048.69;5033173;28;20026;-46
2022/12/01 04:07:22;;;;;;;2.13;1.90;;;;;;;6.28;98.51;100054.34;5032993;28;20489;-46
2022/12/01 04:09:48;;;;;;;2.38;2.10;;;;;;;6.56;98.86;100054.81;5033353;28;20107;-44
2022/12/01 04:12:28;;;;;;;2.95;2.33;;;;;;;6.68;97.84;100058.72;5032870;28;20105;-44
2022/12/01 04:15:09;;;;;;;11.98;6.60;;;;;;;6.29;97.60;100042.81;5032897;28;20388;-44
2022/12/01 04:17:35;;;;;;;2.28;1.90;;;;;;;6.53;98.86;100055.13;5032760;28;20116;-46
2022/12/01 04:20:00;;;;;;;2.53;1.92;;;;;;;6.52;97.85;100056.13;5032944;28;20109;-45
2022/12/01 04:22:26;;;;;;;3.05;2.03;;;;;;;6.84;96.80;100055.22;5032542;28;20112;-45
2022/12/01 04:24:52;;;;;;;2.60;2.20;;;;;;;6.77;96.70;100056.88;5032725;28;20527;-45
2022/12/01 04:27:18;;;;;;;3.00;2.10;;;;;;;6.61;97.36;100055.94;5032815;28;20029;-45
2022/12/01 04:29:44;;;;;;;2.47;1.80;;;;;;;6.34;96.57;100062.47;5032592;28;20025;-44
2022/12/01 04:32:09;;;;;;;1.92;1.70;;;;;;;6.22;98.26;100067.25;5032215;28;20113;-48
2022/12/01 04:34:34;;;;;;;3.58;1.83;;;;;;;6.44;98.53;100067.56;5032704;28;20036;-45
2022/12/01 04:37:00;;;;;;;5.95;3.55;;;;;;;6.42;98.28;100054.50;5032524;28;20501;-46
2022/12/01 04:39:26;;;;;;;2.08;1.88;;;;;;;6.50;97.70;100064.22;5032230;28;20030;-46
2022/12/01 04:41:51;;;;;;;2.55;1.85;;;;;;;6.41;97.38;100063.41;5032350;28;20025;-47
2022/12/01 04:44:16;;;;;;;2.30;1.90;;;;;;;6.34;97.82;100058.97;5031434;28;20059;-45
2022/12/01 04:46:42;;;;;;;2.00;1.77;;;;;;;6.58;96.39;100058.91;5032223;28;20029;-46
2022/12/01 04:49:07;;;;;;;2.10;1.70;;;;;;;6.45;96.71;100072.69;5032197;28;20028;-45
2022/12/01 04:51:33;;;;;;;4.43;1.75;;;;;;;6.31;96.93;100068.06;5032374;28;20028;-47
2022/12/01 04:53:59;;;;;;;2.28;2.05;;;;;;;6.62;96.53;100065.50;5032017;28;20104;-47
2022/12/01 04:56:25;;;;;;;2.50;2.00;;;;;;;6.35;97.77;100072.03;5031932;28;20044;-45
2022/12/01 04:58:50;;;;;;;2.00;1.63;;;;;;;6.35;97.11;100065.91;5032436;28;20021;-49
2022/12/01 05:01:17;;;;;;;2.38;1.98;;;;;;;6.55;97.16;100069.84;5031933;28;20074;-47
2022/12/01 05:03:48;;;;;;;3.83;1.70;;;;;;;6.35;97.90;100064.09;5031567;28;20091;-48
2022/12/01 05:06:16;;;;;;;2.35;1.90;;;;;;;6.53;98.04;100065.72;5031743;28;20098;-45
2022/12/01 05:08:42;;;;;;;1.80;1.48;;;;;;;6.51;97.18;100062.41;5031593;28;20424;-44
2022/12/01 05:11:10;;;;;;;2.28;1.73;;;;;;;6.64;96.73;100076.78;5031834;28;20017;-45
2022/12/01 05:13:40;;;;;;;1.90;1.50;;;;;;;6.67;95.73;100072.94;5032151;28;20072;-50
2022/12/01 05:16:06;;;;;;;;;;;;;;;6.46;95.45;100065.56;5032266;28;20027;-45
2022/12/01 05:18:32;;;;;;;1.65;1.55;;;;;;;6.46;96.35;100070.84;5031561;28;19999;-46
2022/12/01 05:20:57;;;;;;;3.55;1.70;;;;;;;6.44;95.17;100072.84;5031629;28;20038;-45
2022/12/01 05:23:28;;;;;;;1.95;1.45;;;;;;;6.57;95.59;100078.44;5031256;28;20021;-46
2022/12/01 05:25:54;;;;;;;2.42;1.60;;;;;;;6.80;95.17;100067.13;5031760;28;20049;-45
2022/12/01 05:28:21;;;;;;;1.50;1.40;;;;;;;6.58;93.78;100069.50;5031992;28;20044;-45
2022/12/01 05:30:47;;;;;;;3.03;1.60;;;;;;;6.60;94.11;100079.91;5031756;28;20025;-47
2022/12/01 05:33:13;;;;;;;3.03;1.70;;;;;;;6.53;93.90;100071.84;5032012;28;20083;-46
2022/12/01 05:35:39;;;;;;;1.95;1.60;;;;;;;6.64;94.54;100073.28;5032324;28;20055;-45
2022/12/01 05:38:05;;;;;;;1.70;1.50;;;;;;;6.51;93.80;100067.69;5031645;28;20029;-45
2022/12/01 05:40:30;;;;;;;2.28;1.80;;;;;;;6.68;93.52;100077.22;5031629;28;20395;-44
2022/12/01 05:42:57;;;;;;;2.42;1.70;;;;;;;6.69;92.95;100073.59;5031288;28;20445;-48
2022/12/01 05:45:23;;;;;;;3.78;2.22;;;;;;;8.57;100.00;100079.47;5031668;28;20047;-45
2022/12/01 05:47:48;;;;;;;1.63;1.20;;;;;;;10.28;76.58;100076.41;5031425;28;20021;-46
2022/12/01 05:50:13;;;;;;;4.38;1.67;;;;;;;8.41;80.51;100077.84;5031424;28;20029;-46
2022/12/01 05:52:39;;;;;;;1.60;1.27;;;;;;;7.69;84.79;100074.75;5031437;28;20096;-38
2022/12/01 05:55:05;;;;;;;2.40;1.45;;;;;;;7.48;86.46;100075.38;5031259;28;20037;-36
2022/12/01 05:57:32;;;;;;;2.20;1.42;;;;;;;7.31;87.67;100083.44;5030798;28;20029;-38
2022/12/01 05:59:58;;;;;;;1.83;1.50;;;;;;;7.04;88.89;100085.56;5031527;28;20021;-37
2022/12/01 06:02:25;;;;;;;1.30;1.20;;;;;;;6.70;90.55;100083.22;5031000;28;20029;-37
2022/12/01 06:04:51;;;;;;;2.10;1.48;;;;;;;6.41;90.82;100073.16;5031366;28;20112;-37
2022/12/01 06:07:16;;;;;;;2.78;1.65;;;;;;;6.54;92.71;100093.81;5030962;28;20113;-37
2022/12/01 06:09:44;;;;;;;2.03;1.50;;;;;;;6.57;92.85;100088.19;5031569;28;20053;-35
2022/12/01 06:12:09;;;;;;;2.28;2.00;;;;;;;6.53;92.58;100087.72;5030869;28;20021;-36
2022/12/01 06:14:34;;;;;;;2.95;2.13;;;;;;;6.52;93.47;100091.34;5031516;28;20040;-37
2022/12/01 06:17:00;;;;;;;2.65;1.70;;;;;;;6.56;93.13;100087.34;5031119;28;20470;-37
2022/12/01 06:19:25;;;;;;;2.78;2.03;;;;;;;6.64;92.34;100087.34;5030784;28;20022;-37
2022/12/01 06:21:50;;;;;;;2.63;1.30;;;;;;;6.57;92.86;100098.78;5030808;28;20029;-37
2022/12/01 06:24:16;;;;;;;2.00;1.30;;;;;;;6.22;93.80;100106.06;5030419;28;20370;-36
2022/12/01 06:26:41;;;;;;;1.83;1.40;;;;;;;6.38;93.98;100097.31;5030522;28;20037;-36
2022/12/01 06:29:09;;;;;;;1.60;1.20;;;;;;;6.30;94.56;100092.84;5031035;28;20021;-36
2022/12/01 06:31:34;;;;;;;3.60;1.55;;;;;;;6.27;94.94;100098.47;5029340;28;20354;-36
2022/12/01 06:34:00;;;;;;;2.00;1.35;;;;;;;6.37;95.58;100103.59;5030414;28;20019;-44
2022/12/01 06:36:25;;;;;;;1.67;1.40;;;;;;;6.25;95.23;100114.50;5030749;28;20112;-46
2022/12/01 06:38:51;;;;;;;1.20;1.00;;;;;;;6.24;95.54;100109.38;5030049;28;20036;-45
2022/12/01 06:41:16;;;;;;;1.20;1.00;;;;;;;6.21;95.34;100102.59;5030498;28;20025;-45
2022/12/01 06:43:41;;;;;;;1.25;1.08;;;;;;;6.30;95.51;100123.75;5030420;28;20097;-46
2022/12/01 06:46:07;;;;;;;1.05;0.95;;;;;;;6.13;95.60;100115.84;5030124;28;20021;-45
2022/12/01 06:48:33;;;;;;;1.40;0.98;;;;;;;6.22;96.52;100114.81;5030014;28;20031;-48
2022/12/01 06:51:00;;;;;;;1.13;0.90;;;;;;;6.21;94.85;100107.09;5029980;28;20101;-45
2022/12/01 06:53:27;;;;;;;1.63;1.30;;;;;;;6.21;94.44;100094.69;5028750;28;20382;-45
2022/12/01 06:55:53;;;;;;;1.10;1.00;;;;;;;5.98;93.94;100102.44;5029661;28;20026;-44
2022/12/01 06:58:18;;;;;;;1.55;0.95;;;;;;;5.95;95.56;100108.06;5030271;28;20021;-46
2022/12/01 07:00:43;;;;;;;1.67;1.02;;;;;;;6.24;95.14;100112.88;5030067;28;20025;-45
2022/12/01 07:03:09;;;;;;;1.52;1.00;;;;;;;6.35;94.85;100114.31;5030821;28;20040;-44
2022/12/01 07:05:35;;;;;;;1.27;1.05;;;;;;;6.06;93.34;100107.72;5029946;28;20037;-44
2022/12/01 07:08:01;;;;;;;5.40;1.10;;;;;;;6.23;92.83;100113.03;5031007;28;20026;-46
2022/12/01 07:10:27;;;;;;;1.27;0.68;;;;;;;6.04;94.09;100109.72;5033848;28;20017;-45
2022/12/01 07:12:55;;;;;;;1.10;0.88;;;;;;;6.21;94.53;100113.19;5032409;28;20018;-48
2022/12/01 07:15:22;;;;;;;1.38;1.00;;;;;;;6.15;93.04;100105.94;5032046;28;20017;-46
2022/12/01 07:17:47;;;;;;;2.80;1.33;;;;;;;6.46;92.55;100116.63;5032644;28;20033;-46
2022/12/01 07:20:13;;;;;;;2.25;1.40;;;;;;;6.49;92.29;100122.56;5032288;28;20021;-44
2022/12/01 07:22:38;;;;;;;1.48;0.90;;;;;;;6.30;91.13;100111.34;5032654;28;20489;-46
2022/12/01 07:25:05;;;;;;;1.73;1.00;;;;;;;6.26;91.70;100110.03;5032325;28;20408;-44
2022/12/01 07:27:30;;;;;;;1.88;0.90;;;;;;;6.50;91.08;100105.72;5033267;28;20032;-45
2022/12/01 07:29:56;;;;;;;1.40;1.00;;;;;;;6.33;91.61;100118.13;5033631;28;20034;-44
2022/12/01 07:32:22;;;;;;;2.50;1.10;;;;;;;6.20;92.74;100118.63;5033586;28;20048;-45
2022/12/01 07:34:47;;;;;;;1.33;0.88;;;;;;;6.28;93.04;100115.16;5034014;28;20470;-45
2022/12/01 07:37:12;;;;;;;1.63;0.85;;;;;;;6.28;92.92;100118.63;5032792;28;20056;-45
2022/12/01 07:39:38;;;;;;;1.00;0.90;;;;;;;6.61;92.03;100108.00;5033500;28;20028;-48
2022/12/01 07:42:03;;;;;;;1.25;0.90;;;;;;;6.68;90.64;100113.44;5033772;28;20359;-45
2022/12/01 07:44:29;;;;;;;1.80;1.15;;;;;;;6.34;90.87;100114.47;5034080;28;20025;-45
2022/12/01 07:46:54;;;;;;;1.42;1.20;;;;;;;6.21;91.72;100118.47;5033616;28;20032;-46
2022/12/01 07:49:20;;;;;;;1.60;1.13;;;;;;;6.11;92.47;100115.19;5033553;28;20029;-45
2022/12/01 07:51:45;;;;;;;3.33;1.50;;;;;;;6.26;92.56;100116.16;5033349;28;20036;-45
2022/12/01 07:54:13;;;;;;;2.17;1.50;;;;;;;6.19;92.45;100117.81;5033609;28;20031;-47
2022/12/01 07:56:39;;;;;;;1.95;1.55;;;;;;;5.98;93.43;100115.66;5033435;28;20398;-44
2022/12/01 07:59:04;;;;;;;1.10;1.00;;;;;;;6.24;93.13;100119.94;5033091;28;20031;-44
2022/12/01 08:01:30;;;;;;;1.45;0.90;;;;;;;6.11;94.24;100122.25;5033393;28;20033;-45
2022/12/01 08:03:57;;;;;;;0.98;0.80;;;;;;;6.36;93.44;100123.91;5033342;28;20021;-36
2022/12/01 08:06:23;;;;;;;2.00;1.17;;;;;;;6.42;94.10;100122.44;5033340;28;20041;-37
2022/12/01 08:08:48;;;;;;;0.95;0.90;;;;;;;6.12;93.18;100122.09;5032964;28;20486;-45
2022/12/01 08:11:20;;;;;;;1.45;0.90;;;;;;;6.18;93.75;100124.06;5032615;28;20025;-46
2022/12/01 08:13:46;;;;;;;1.42;1.15;;;;;;;6.15;93.80;100121.78;5032488;28;20512;-44
2022/12/01 08:16:14;;;;;;;3.22;1.40;;;;;;;6.01;94.65;100119.78;5032590;28;20021;-44
2022/12/01 08:18:41;;;;;;;2.47;1.50;;;;;;;6.13;94.59;100123.75;5032280;28;20061;-45
2022/12/01 08:21:08;;;;;;;2.63;1.38;;;;;;;6.42;93.54;100131.19;5032100;28;20109;-45
2022/12/01 08:23:33;;;;;;;1.45;1.30;;;;;;;6.42;92.93;100128.53;5032250;28;20557;-45
2022/12/01 08:26:04;;;;;;;1.30;1.10;;;;;;;6.34;90.98;100117.13;5032580;28;20136;-45
2022/12/01 08:28:30;;;;;;;1.50;1.20;;;;;;;6.43;91.91;100124.88;5032579;28;20489;-44
2022/12/01 08:30:55;;;;;;;1.33;1.00;;;;;;;6.10;91.79;100123.25;5032734;28;20029;-47
2022/12/01 08:33:21;;;;;;;1.15;1.00;;;;;;;6.12;92.66;100129.22;5032574;28;20115;-44
2022/12/01 08:35:46;;;;;;;1.25;1.05;;;;;;;6.24;92.42;100120.78;5032360;28;20029;-45
2022/12/01 08:38:12;;;;;;;1.30;0.98;;;;;;;6.16;93.00;100114.66;5032405;28;20024;-44
2022/12/01 08:40:37;;;;;;;1.10;1.00;;;;;;;6.11;91.51;100112.53;5032454;28;20505;-44
2022/12/01 08:43:04;;;;;;;1.50;1.30;;;;;;;6.30;92.71;100105.25;5032568;28;20037;-44
2022/12/01 08:45:29;;;;;;;2.80;2.05;;;;;;;6.36;92.80;100113.34;5032196;28;20025;-44
2022/12/01 08:47:57;;;;;;;2.08;1.45;;;;;;;6.49;91.57;100107.53;5032109;28;20511;-44
2022/12/01 08:50:25;;;;;;;2.22;1.33;;;;;;;6.38;91.32;100113.19;5032213;28;20029;-43
2022/12/01 08:52:50;;;;;;;1.95;1.60;;;;;;;6.35;91.73;100103.75;5032214;28;20022;-45
2022/12/01 08:55:16;;;;;;;2.97;1.70;;;;;;;6.10;92.94;100105.59;5032172;28;20032;-45
2022/12/01 08:57:41;;;;;;;1.33;1.23;;;;;;;6.23;93.09;100097.16;5032014;28;20032;-44
2022/12/01 09:00:07;;;;;;;1.73;1.50;;;;;;;6.45;92.35;100101.78;5032315;28;20519;-45
2022/12/01 09:02:32;;;;;;;2.00;1.52;;;;;;;6.24;92.57;100102.28;5031897;28;20440;-44
2022/12/01 09:04:58;;;;;;;4.80;1.50;;;;;;;6.48;91.77;100095.31;5031893;28;20021;-46
2022/12/01 09:07:23;;;;;;;3.22;1.60;;;;;;;6.44;91.51;100083.44;5031813;28;20060;-44
2022/12/01 09:09:49;;;;;;;1.73;1.50;;;;;;;6.32;90.95;100097.97;5032204;28;20024;-45
2022/12/01 09:12:15;;;;;;;2.40;1.70;;;;;;;6.19;92.35;100087.91;5031644;28;20021;-45
2022/12/01 09:14:42;;;;;;;2.50;1.58;;;;;;;6.42;90.70;100080.94;5031446;28;20345;-45
2022/12/01 09:17:08;;;;;;;3.03;1.50;;;;;;;6.26;91.82;100084.44;5031183;28;20490;-43
2022/12/01 09:19:34;;;;;;;2.38;1.80;;;;;;;6.51;91.42;100075.63;5031259;28;20091;-47
2022/12/01 09:21:59;;;;;;;4.35;1.75;;;;;;;6.59;90.51;100075.63;5031641;28;20025;-45
2022/12/01 09:24:25;;;;;;;2.38;1.90;;;;;;;6.33;92.51;100083.78;5031569;28;20367;-45
2022/12/01 09:26:55;;;;;;;2.53;1.80;;;;;;;6.21;93.78;100084.09;5031511;28;20083;-46
2022/12/01 09:29:20;;;;;;;2.97;1.90;;;;;;;6.69;91.74;100068.31;5031721;28;20524;-45
2022/12/01 09:31:46;;;;;;;2.60;1.92;;;;;;;6.62;92.01;100072.63;5031244;28;20105;-46
2022/12/01 09:34:17;;;;;;;2.03;1.80;;;;;;;6.65;91.88;100069.66;5031331;28;20029;-46
2022/12/01 09:36:43;;;;;;;2.30;1.83;;;;;;;6.77;90.70;100065.63;5031489;28;20041;-47
2022/12/01 09:39:13;;;;;;;2.70;1.90;;;;;;;6.67;91.40;100061.56;5031444;28;20116;-45
2022/12/01 09:41:56;;;;;;;2.75;1.85;;;;;;;6.54;92.39;100062.91;5030521;28;20457;-44
2022/12/01 09:44:38;;;;;;;3.53;2.28;;;;;;;6.41;92.99;100054.66;5030620;28;20029;-46
2022/12/01 09:47:12;;;;;;;4.20;2.30;;;;;;;6.66;91.17;100060.72;5031347;28;20029;-45
2022/12/01 09:49:59;;;;;;;3.50;2.47;;;;;;;6.80;92.91;100059.19;5031014;28;20048;-44
2022/12/01 09:52:27;;;;;;;3.95;2.15;;;;;;;7.12;89.53;100054.72;5026742;28;20092;-45
2022/12/01 09:54:54;;;;;;;3.88;2.20;;;;;;;7.16;89.02;100054.22;5030912;28;20045;-45
2022/12/01 09:57:36;;;;;;;5.40;2.45;;;;;;;6.88;90.18;100048.56;5031206;28;20029;-48
2022/12/01 10:00:14;;;;;;;4.05;2.45;;;;;;;6.70;91.23;100048.81;5031224;28;20024;-46
2022/12/01 10:02:46;;;;;;;4.57;2.70;;;;;;;6.74;92.50;100055.41;5031020;28;20036;-44
2022/12/01 10:05:23;;;;;;;4.38;2.60;;;;;;;6.94;90.03;100055.00;5031139;28;20106;-48
2022/12/01 10:07:56;;;;;;;6.18;2.90;;;;;;;6.89;92.04;100057.31;5030839;28;20100;-46
2022/12/01 10:10:37;;;;;;;4.53;2.75;;;;;;;6.73;91.58;100063.50;5030852;28;20091;-46
2022/12/01 10:13:27;;;;;;;3.58;2.53;;;;;;;6.74;93.33;100051.91;5030894;28;20059;-47
2022/12/01 10:15:53;;;;;;;4.95;2.92;;;;;;;6.85;92.97;100044.47;5030462;28;20037;-45
2022/12/01 10:18:43;;;;;;;4.55;2.60;;;;;;;6.80;91.99;100048.63;5030435;28;20091;-45
2022/12/01 10:21:20;;;;;;;3.03;2.25;;;;;;;6.77;90.82;100046.31;5030954;28;20030;-47
2022/12/01 10:24:04;;;;;;;5.07;2.55;;;;;;;6.74;92.35;100044.00;5030959;28;20033;-46
2022/12/01 10:26:41;;;;;;;3.28;2.47;;;;;;;6.84;91.66;100036.69;5030890;28;20053;-46
2022/12/01 10:29:22;;;;;;;3.30;2.30;;;;;;;6.92;92.08;100038.47;5030533;28;20041;-46
2022/12/01 10:31:51;;;;;;;;;;;;;;;6.87;91.09;100041.63;5031147;28;20116;-50
2022/12/01 10:34:31;;;;;;;4.53;2.63;;;;;;;6.75;92.81;100041.19;5030336;28;19913;-48
2022/12/01 10:36:57;;;;;;;4.20;2.60;;;;;;;6.82;91.48;100034.22;5030676;28;20036;-45
2022/12/01 10:39:43;;;;;;;4.78;2.45;;;;;;;6.85;92.27;100039.16;5030633;28;20033;-46
2022/12/01 10:42:11;;;;;;;5.10;2.70;;;;;;;6.94;92.58;100042.59;5028369;28;20049;-44
2022/12/01 10:44:39;;;;;;;4.50;2.80;;;;;;;6.83;92.05;100027.94;5030221;28;20057;-47
2022/12/01 10:47:14;;;;;;;4.38;2.92;;;;;;;6.72;93.32;100024.81;5030383;28;20033;-48
2022/12/01 10:49:40;;;;;;;3.88;2.75;;;;;;;6.91;92.13;100024.44;5030411;28;20029;-45
2022/12/01 10:52:06;;;;;;;4.53;2.80;;;;;;;6.74;92.99;100021.03;5030710;28;20434;-45
2022/12/01 10:54:38;;;;;;;6.50;3.20;;;;;;;6.93;92.97;100022.44;5030336;28;20474;-46
2022/12/01 10:57:05;;;;;;;6.30;3.05;;;;;;;6.93;93.44;100025.06;5030337;28;20029;-45
2022/12/01 10:59:55;;;;;;;4.30;2.85;;;;;;;6.88;93.75;100027.41;5030355;28;20553;-46
2022/12/01 11:02:23;;;;;;;4.68;2.97;;;;;;;6.74;93.55;100012.25;5030285;28;20061;-46
2022/12/01 11:04:54;;;;;;;3.35;2.40;;;;;;;7.05;91.67;100026.31;5030378;28;20034;-46
2022/12/01 11:07:28;;;;;;;3.15;2.40;;;;;;;6.88;92.51;100016.81;5029812;28;20455;-46
2022/12/01 11:10:14;;;;;;;5.75;3.03;;;;;;;6.93;92.41;100018.94;5030035;28;20351;-47
2022/12/01 11:12:41;;;;;;;4.45;2.90;;;;;;;6.78;93.31;100019.69;5029529;28;20034;-48
2022/12/01 11:15:16;;;;;;;6.05;3.20;;;;;;;6.80;93.63;100014.22;5030407;28;20025;-45
2022/12/01 11:17:44;;;;;;;4.07;2.78;;;;;;;6.79;94.08;100018.66;5030048;28;20466;-46
2022/12/01 11:20:32;;;;;;;7.72;3.05;;;;;;;7.01;92.90;100009.16;5030093;28;20034;-48
2022/12/01 11:23:19;;;;;;;4.35;2.95;;;;;;;6.92;91.56;100012.84;5029810;28;20605;-46
2022/12/01 11:26:19;;;;;;;3.53;2.78;;;;;;;6.95;91.92;100020.44;5029898;28;20068;-46
2022/12/01 11:29:34;;;;;;;6.72;3.55;;;;;;;6.98;92.82;100008.66;5030018;28;20037;-46
2022/12/01 11:32:01;;;;;;;4.90;2.83;;;;;;;7.03;91.58;100009.81;5028168;28;20116;-45
2022/12/01 11:34:30;;;;;;;3.80;2.40;;;;;;;7.02;89.18;100010.78;5029851;28;20021;-46
2022/12/01 11:36:59;;;;;;;4.10;2.33;;;;;;;6.92;92.64;100007.53;5030063;28;20032;-46
2022/12/01 11:39:40;;;;;;;3.37;2.00;;;;;;;6.83;91.39;100000.63;5029809;28;20127;-45
2022/12/01 11:42:13;;;;;;;3.97;2.10;;;;;;;6.81;90.02;100006.09;5029801;28;20032;-44
2022/12/01 11:44:46;;;;;;;3.53;1.80;;;;;;;6.91;90.66;100007.72;5029772;28;20044;-46
2022/12/01 11:47:21;;;;;;;2.72;1.70;;;;;;;6.99;88.67;100003.22;5030100;28;20025;-44